createdAt,value
2023-02-02T00:01:44.610Z,6.25
2023-02-02T00:04:17.414Z,6.21
2023-02-02T00:06:46.206Z,6.23
2023-02-02T00:09:15.421Z,6.22
2023-02-02T00:11:43.548Z,6.21
2023-02-02T00:14:11.144Z,6.20
2023-02-02T00:16:40.882Z,6.22
2023-02-02T00:19:22.943Z,6.22
2023-02-02T00:21:49.689Z,6.17
2023-02-02T00:24:20.591Z,6.17
2023-02-02T00:26:50.171Z,6.18
2023-02-02T00:29:19.678Z,6.18
2023-02-02T00:31:46.942Z,6.18
2023-02-02T00:34:14.798Z,6.14
2023-02-02T00:36:42.500Z,6.15
2023-02-02T00:39:14.982Z,6.12
2023-02-02T00:41:42.251Z,6.11
2023-02-02T00:44:27.348Z,6.10
2023-02-02T00:46:54.958Z,6.13
2023-02-02T00:49:21.756Z,6.08
2023-02-02T00:51:48.314Z,6.10
2023-02-02T00:54:14.836Z,6.16
2023-02-02T00:56:42.210Z,6.07
2023-02-02T00:59:08.770Z,6.16
2023-02-02T01:01:35.871Z,6.10
2023-02-02T01:04:02.572Z,6.17
2023-02-02T01:06:29.862Z,6.12
2023-02-02T01:08:56.458Z,6.08
2023-02-02T01:11:23.547Z,6.12
2023-02-02T01:13:50.147Z,6.11
2023-02-02T01:16:17.357Z,6.05
2023-02-02T01:18:43.932Z,6.05
2023-02-02T01:21:12.669Z,6.02
2023-02-02T01:23:40.252Z,6.02
2023-02-02T01:26:09.503Z,5.94
2023-02-02T01:28:36.551Z,5.83
2023-02-02T01:31:12.320Z,5.86
2023-02-02T01:33:39.693Z,5.85
2023-02-02T01:36:10.320Z,5.81
2023-02-02T01:38:37.543Z,5.77
2023-02-02T01:41:04.817Z,5.75
2023-02-02T01:43:55.426Z,5.76
2023-02-02T01:46:33.597Z,5.75
2023-02-02T01:49:05.693Z,5.74
2023-02-02T01:51:41.806Z,5.71
2023-02-02T01:54:13.693Z,5.73
2023-02-02T01:57:09.652Z,5.74
2023-02-02T01:59:37.161Z,5.72
2023-02-02T02:02:03.861Z,5.70
2023-02-02T02:04:32.311Z,5.72
2023-02-02T02:07:01.367Z,5.69
2023-02-02T02:09:28.494Z,5.69
2023-02-02T02:11:55.190Z,5.67
2023-02-02T02:14:41.537Z,5.74
2023-02-02T02:17:17.190Z,5.73
2023-02-02T02:20:29.678Z,5.74
2023-02-02T02:23:36.893Z,5.74
2023-02-02T02:26:41.044Z,5.72
2023-02-02T02:29:35.903Z,5.72
2023-02-02T02:32:10.095Z,5.72
2023-02-02T02:34:53.972Z,5.73
2023-02-02T02:37:34.726Z,5.80
2023-02-02T02:40:08.516Z,5.86
2023-02-02T02:42:40.137Z,5.87
2023-02-02T02:45:09.527Z,5.86
2023-02-02T02:47:37.445Z,5.92
2023-02-02T02:50:05.312Z,5.93
2023-02-02T02:52:33.545Z,5.91
2023-02-02T02:55:01.826Z,5.95
2023-02-02T02:57:41.393Z,5.97
2023-02-02T03:00:14.348Z,6.02
2023-02-02T03:02:43.888Z,6.00
2023-02-02T03:05:31.727Z,6.01
2023-02-02T03:08:10.956Z,6.00
2023-02-02T03:10:41.123Z,5.97
2023-02-02T03:13:11.023Z,6.07
2023-02-02T03:15:41.625Z,6.05
2023-02-02T03:18:08.641Z,6.07
2023-02-02T03:20:35.322Z,6.09
2023-02-02T03:23:02.361Z,6.11
2023-02-02T03:25:29.439Z,6.15
2023-02-02T03:27:56.590Z,6.14
2023-02-02T03:30:23.721Z,6.18
2023-02-02T03:32:52.631Z,6.24
2023-02-02T03:35:20.878Z,6.30
2023-02-02T03:37:48.359Z,6.26
2023-02-02T03:40:15.835Z,6.28
2023-02-02T03:42:42.360Z,6.28
2023-02-02T03:45:10.125Z,6.29
2023-02-02T03:47:37.148Z,6.24
2023-02-02T03:50:04.797Z,6.22
2023-02-02T03:52:31.379Z,6.24
2023-02-02T03:54:58.400Z,6.20
2023-02-02T03:57:25.021Z,6.18
2023-02-02T03:59:51.755Z,6.21
2023-02-02T04:02:18.338Z,6.18
2023-02-02T04:04:45.395Z,6.21
2023-02-02T04:07:11.888Z,6.22
2023-02-02T04:09:38.398Z,6.17
2023-02-02T04:12:06.060Z,6.23
2023-02-02T04:14:32.609Z,6.23
2023-02-02T04:17:00.127Z,6.26
2023-02-02T04:19:27.132Z,6.34
2023-02-02T04:21:54.381Z,6.36
2023-02-02T04:24:20.962Z,6.34
2023-02-02T04:26:47.773Z,6.35
2023-02-02T04:29:14.548Z,6.37
2023-02-02T04:31:41.590Z,6.38
2023-02-02T04:34:08.261Z,6.43
2023-02-02T04:36:34.803Z,6.42
2023-02-02T04:39:01.337Z,6.44
2023-02-02T04:41:27.968Z,6.43
2023-02-02T04:43:54.554Z,6.41
2023-02-02T04:46:21.087Z,6.47
2023-02-02T04:48:51.040Z,6.46
2023-02-02T04:51:18.765Z,6.47
2023-02-02T04:53:45.801Z,6.47
2023-02-02T04:56:18.499Z,6.46
2023-02-02T04:58:46.315Z,6.48
2023-02-02T05:01:19.395Z,6.50
2023-02-02T05:03:47.389Z,6.51
2023-02-02T05:06:16.060Z,6.51
2023-02-02T05:08:45.997Z,6.42
2023-02-02T05:11:15.209Z,6.42
2023-02-02T05:13:46.618Z,6.45
2023-02-02T05:16:13.985Z,6.51
2023-02-02T05:18:42.115Z,6.55
2023-02-02T05:21:09.389Z,6.54
2023-02-02T05:23:37.133Z,6.55
2023-02-02T05:26:04.267Z,6.59
2023-02-02T05:28:31.584Z,6.55
2023-02-02T05:30:58.667Z,6.50
2023-02-02T05:33:25.702Z,6.51
2023-02-02T05:35:52.859Z,6.52
2023-02-02T05:38:20.447Z,6.51
2023-02-02T05:40:49.187Z,6.52
2023-02-02T05:43:16.229Z,6.55
2023-02-02T05:45:42.883Z,6.58
2023-02-02T05:48:14.257Z,6.50
2023-02-02T05:50:43.161Z,6.47
2023-02-02T05:53:12.975Z,6.43
2023-02-02T05:55:40.017Z,6.51
2023-02-02T05:58:07.052Z,6.54
2023-02-02T06:00:34.282Z,6.52
2023-02-02T06:03:00.962Z,6.52
2023-02-02T06:05:27.523Z,6.53
2023-02-02T06:07:55.006Z,6.47
2023-02-02T06:10:22.039Z,6.48
2023-02-02T06:12:48.591Z,6.46
2023-02-02T06:15:15.710Z,6.43
2023-02-02T06:17:43.256Z,6.41
2023-02-02T06:20:10.283Z,6.41
2023-02-02T06:22:37.969Z,6.36
2023-02-02T06:25:05.631Z,6.39
2023-02-02T06:27:32.655Z,6.31
2023-02-02T06:29:59.697Z,6.35
2023-02-02T06:32:29.787Z,6.37
2023-02-02T06:34:56.483Z,6.31
2023-02-02T06:37:23.053Z,6.40
2023-02-02T06:39:50.052Z,6.42
2023-02-02T06:42:21.723Z,6.37
2023-02-02T06:44:49.633Z,6.34
2023-02-02T06:47:17.226Z,6.32
2023-02-02T06:49:44.298Z,6.33
2023-02-02T06:52:11.284Z,6.32
2023-02-02T06:54:37.858Z,6.35
2023-02-02T06:57:04.974Z,6.36
2023-02-02T06:59:32.093Z,6.33
2023-02-02T07:01:59.180Z,6.34
2023-02-02T07:04:25.764Z,6.36
2023-02-02T07:06:52.875Z,6.28
2023-02-02T07:09:19.456Z,6.31
2023-02-02T07:11:46.519Z,6.23
2023-02-02T07:14:14.286Z,6.24
2023-02-02T07:16:40.981Z,6.27
2023-02-02T07:19:07.584Z,6.32
2023-02-02T07:21:37.334Z,6.30
2023-02-02T07:24:05.462Z,6.27
2023-02-02T07:26:32.508Z,6.22
2023-02-02T07:28:59.049Z,6.27
2023-02-02T07:31:27.802Z,6.22
2023-02-02T07:33:54.464Z,6.23
2023-02-02T07:36:23.947Z,6.26
2023-02-02T07:38:57.682Z,6.26
2023-02-02T07:41:25.102Z,6.23
2023-02-02T07:43:52.122Z,6.28
2023-02-02T07:46:20.571Z,6.28
2023-02-02T07:48:47.747Z,6.33
2023-02-02T07:51:17.175Z,6.30
2023-02-02T07:53:48.471Z,6.31
2023-02-02T07:56:18.627Z,6.30
2023-02-02T07:58:45.325Z,6.38
2023-02-02T08:01:15.728Z,6.34
2023-02-02T08:03:43.115Z,6.35
2023-02-02T08:06:12.576Z,6.37
2023-02-02T08:08:39.352Z,6.42
2023-02-02T08:11:09.032Z,6.40
2023-02-02T08:13:35.804Z,6.43
2023-02-02T08:16:02.665Z,6.51
2023-02-02T08:18:29.802Z,6.42
2023-02-02T08:21:05.520Z,6.42
2023-02-02T08:23:32.193Z,6.48
2023-02-02T08:26:22.789Z,6.56
2023-02-02T08:28:53.347Z,6.52
2023-02-02T08:31:24.132Z,6.51
2023-02-02T08:33:52.300Z,6.52
2023-02-02T08:36:21.375Z,6.59
2023-02-02T08:38:48.407Z,6.64
2023-02-02T08:41:17.207Z,6.68
2023-02-02T08:43:44.716Z,6.76
2023-02-02T08:46:14.586Z,6.76
2023-02-02T08:48:41.957Z,6.75
2023-02-02T08:51:11.826Z,6.79
2023-02-02T08:53:38.785Z,6.74
2023-02-02T08:56:20.093Z,6.76
2023-02-02T08:58:48.592Z,6.71
2023-02-02T09:01:19.186Z,6.69
2023-02-02T09:03:46.447Z,6.67
2023-02-02T09:06:18.179Z,6.70
2023-02-02T09:08:46.708Z,6.75
2023-02-02T09:11:16.505Z,6.82
2023-02-02T09:13:45.795Z,6.89
2023-02-02T09:16:14.980Z,7.01
2023-02-02T09:18:42.924Z,7.00
2023-02-02T09:21:12.171Z,7.00
2023-02-02T09:23:40.610Z,6.97
2023-02-02T09:26:15.002Z,7.00
2023-02-02T09:28:44.948Z,7.01
2023-02-02T09:31:12.884Z,7.00
2023-02-02T09:33:40.324Z,7.03
2023-02-02T09:36:10.056Z,7.12
2023-02-02T09:38:38.840Z,7.16
2023-02-02T09:41:39.365Z,7.24
2023-02-02T09:44:33.895Z,7.22
2023-02-02T09:47:15.930Z,7.21
2023-02-02T09:49:52.074Z,7.17
2023-02-02T09:52:34.651Z,7.20
2023-02-02T09:55:06.452Z,7.22
2023-02-02T09:57:49.948Z,7.23
2023-02-02T10:00:30.261Z,7.26
2023-02-02T10:03:24.907Z,7.24
2023-02-02T10:05:57.784Z,7.22
2023-02-02T10:08:35.125Z,7.12
2023-02-02T10:11:16.331Z,7.19
2023-02-02T10:13:44.868Z,7.08
2023-02-02T10:16:24.026Z,7.07
2023-02-02T10:19:09.681Z,7.01
2023-02-02T10:21:55.433Z,7.05
2023-02-02T10:24:29.431Z,7.06
2023-02-02T10:26:59.378Z,7.11
2023-02-02T10:29:48.577Z,7.15
2023-02-02T10:32:15.426Z,7.25
2023-02-02T10:34:42.462Z,7.27
2023-02-02T10:37:34.621Z,7.25
2023-02-02T10:40:01.190Z,7.27
2023-02-02T10:43:06.607Z,7.23
2023-02-02T10:45:34.107Z,7.25
2023-02-02T10:48:01.651Z,7.30
2023-02-02T10:50:28.761Z,7.28
2023-02-02T10:53:02.351Z,7.37
2023-02-02T10:55:39.858Z,7.38
2023-02-02T10:58:12.377Z,7.48
2023-02-02T11:00:53.184Z,7.46
2023-02-02T11:03:25.926Z,7.48
2023-02-02T11:06:13.834Z,7.48
2023-02-02T11:08:43.741Z,7.40
2023-02-02T11:11:19.031Z,7.37
2023-02-02T11:13:51.620Z,7.43
2023-02-02T11:16:21.104Z,7.40
2023-02-02T11:18:48.577Z,7.37
2023-02-02T11:21:35.007Z,7.43
2023-02-02T11:24:02.923Z,7.36
2023-02-02T11:26:50.696Z,7.39
2023-02-02T11:29:38.856Z,7.39
2023-02-02T11:32:39.420Z,7.45
2023-02-02T11:35:17.844Z,7.47
2023-02-02T11:37:54.081Z,7.49
2023-02-02T11:40:28.614Z,7.52
2023-02-02T11:42:58.171Z,7.51
2023-02-02T11:45:35.690Z,7.51
2023-02-02T11:48:16.334Z,7.51
2023-02-02T11:50:55.237Z,7.43
2023-02-02T11:53:40.359Z,7.45
2023-02-02T11:56:17.702Z,7.41
2023-02-02T11:58:47.860Z,7.46
2023-02-02T12:01:36.120Z,7.43
2023-02-02T12:04:23.862Z,7.53
2023-02-02T12:06:50.939Z,7.51
2023-02-02T12:09:21.553Z,7.55
2023-02-02T12:12:12.957Z,7.51
2023-02-02T12:14:53.856Z,7.52
2023-02-02T12:17:42.137Z,7.40
2023-02-02T12:20:36.716Z,7.48
2023-02-02T12:23:28.454Z,7.43
2023-02-02T12:26:19.256Z,7.43
2023-02-02T12:29:03.690Z,7.37
2023-02-02T12:32:06.880Z,7.39
2023-02-02T12:34:59.229Z,7.42
2023-02-02T12:37:35.868Z,7.42
2023-02-02T12:40:27.410Z,7.45
2023-02-02T12:42:57.443Z,7.44
2023-02-02T12:45:31.245Z,7.47
2023-02-02T12:48:33.667Z,7.42
2023-02-02T12:51:28.887Z,7.42
2023-02-02T12:54:47.248Z,7.40
2023-02-02T12:57:38.578Z,7.41
2023-02-02T13:00:14.048Z,7.42
2023-02-02T13:03:01.772Z,7.44
2023-02-02T13:05:31.728Z,7.43
2023-02-02T13:08:10.543Z,7.38
2023-02-02T13:10:39.992Z,7.39
2023-02-02T13:13:17.394Z,7.42
2023-02-02T13:15:50.096Z,7.36
2023-02-02T13:18:37.088Z,7.31
2023-02-02T13:21:11.399Z,7.36
2023-02-02T13:23:44.836Z,7.32
2023-02-02T13:26:28.214Z,7.38
2023-02-02T13:29:02.153Z,7.38
2023-02-02T13:31:34.314Z,7.35
2023-02-02T13:34:23.683Z,7.17
2023-02-02T13:37:32.100Z,7.18
2023-02-02T13:40:02.846Z,7.20
2023-02-02T13:42:43.578Z,7.16
2023-02-02T13:45:18.025Z,7.14
2023-02-02T13:47:53.584Z,7.12
2023-02-02T13:50:26.289Z,7.15
2023-02-02T13:53:29.699Z,7.10
2023-02-02T13:56:08.052Z,7.05
2023-02-02T13:58:43.844Z,7.10
2023-02-02T14:01:13.457Z,7.06
2023-02-02T14:03:44.849Z,7.06
2023-02-02T14:06:18.202Z,7.03
2023-02-02T14:09:00.187Z,6.99
2023-02-02T14:11:31.873Z,6.99
2023-02-02T14:14:33.288Z,6.96
2023-02-02T14:17:21.332Z,6.95
2023-02-02T14:20:04.666Z,6.98
2023-02-02T14:22:50.919Z,6.97
2023-02-02T14:25:30.113Z,6.97
2023-02-02T14:28:03.103Z,6.95
2023-02-02T14:30:36.180Z,6.93
2023-02-02T14:33:23.763Z,6.94
2023-02-02T14:35:52.090Z,6.99
2023-02-02T14:38:39.509Z,6.96
2023-02-02T14:42:23.036Z,6.97
2023-02-02T14:45:07.917Z,7.01
2023-02-02T14:47:47.277Z,6.98
2023-02-02T14:50:38.186Z,6.94
2023-02-02T14:53:15.603Z,6.96
2023-02-02T14:56:18.231Z,6.94
2023-02-02T14:58:53.830Z,6.96
2023-02-02T15:01:21.589Z,6.93
2023-02-02T15:03:48.143Z,6.97
2023-02-02T15:06:35.522Z,6.97
2023-02-02T15:09:20.675Z,6.93
2023-02-02T15:12:01.484Z,6.93
2023-02-02T15:14:38.648Z,6.93
2023-02-02T15:17:13.121Z,6.92
2023-02-02T15:19:44.889Z,6.93
2023-02-02T15:22:30.639Z,6.93
2023-02-02T15:25:02.982Z,6.94
2023-02-02T15:27:31.420Z,6.94
2023-02-02T15:30:04.320Z,6.92
2023-02-02T15:32:32.021Z,6.93
2023-02-02T15:35:03.512Z,6.95
2023-02-02T15:37:41.602Z,6.95
2023-02-02T15:40:31.158Z,6.92
2023-02-02T15:43:04.453Z,7.00
2023-02-02T15:45:43.443Z,6.96
2023-02-02T15:48:18.729Z,6.98
2023-02-02T15:50:47.153Z,6.96
2023-02-02T15:53:38.589Z,6.98
2023-02-02T15:56:37.939Z,6.98
2023-02-02T15:59:29.211Z,6.96
2023-02-02T16:02:23.004Z,6.92
2023-02-02T16:04:56.102Z,6.96
2023-02-02T16:07:29.304Z,6.95
2023-02-02T16:09:56.358Z,6.92
2023-02-02T16:12:23.681Z,6.92
2023-02-02T16:14:53.464Z,6.93
2023-02-02T16:17:28.564Z,6.96
2023-02-02T16:20:12.961Z,6.92
2023-02-02T16:22:41.459Z,6.93
2023-02-02T16:25:13.627Z,6.90
2023-02-02T16:27:46.158Z,6.84
2023-02-02T16:30:26.260Z,6.86
2023-02-02T16:32:53.249Z,6.93
2023-02-02T16:35:35.190Z,6.87
2023-02-02T16:38:36.108Z,6.83
2023-02-02T16:41:24.856Z,6.84
2023-02-02T16:43:52.633Z,6.92
2023-02-02T16:46:46.174Z,6.92
2023-02-02T16:49:18.985Z,6.92
2023-02-02T16:51:48.143Z,6.88
2023-02-02T16:54:21.702Z,6.90
2023-02-02T16:56:52.130Z,6.86
2023-02-02T16:59:26.492Z,6.96
2023-02-02T17:01:57.189Z,6.97
2023-02-02T17:04:28.261Z,6.93
2023-02-02T17:06:58.110Z,6.91
2023-02-02T17:09:35.244Z,6.93
2023-02-02T17:12:02.489Z,6.92
2023-02-02T17:14:32.947Z,6.94
2023-02-02T17:17:00.590Z,6.98
2023-02-02T17:19:31.164Z,6.99
2023-02-02T17:22:01.480Z,7.01
2023-02-02T17:24:29.413Z,7.03
2023-02-02T17:26:56.158Z,7.04
2023-02-02T17:29:23.370Z,7.06
2023-02-02T17:31:51.171Z,7.12
2023-02-02T17:34:17.855Z,7.07
2023-02-02T17:36:44.395Z,7.14
2023-02-02T17:39:11.845Z,7.11
2023-02-02T17:41:39.236Z,7.11
2023-02-02T17:44:06.903Z,7.09
2023-02-02T17:46:33.610Z,7.17
2023-02-02T17:49:00.211Z,7.12
2023-02-02T17:51:26.803Z,7.07
2023-02-02T17:53:57.684Z,7.09
2023-02-02T17:56:24.344Z,7.06
2023-02-02T17:58:50.875Z,7.11
2023-02-02T18:01:17.616Z,7.12
2023-02-02T18:03:45.946Z,7.07
2023-02-02T18:06:12.756Z,7.06
2023-02-02T18:08:39.802Z,7.08
2023-02-02T18:11:07.127Z,7.08
2023-02-02T18:13:33.762Z,7.03
2023-02-02T18:16:00.476Z,7.03
2023-02-02T18:18:29.694Z,7.04
2023-02-02T18:20:56.883Z,6.96
2023-02-02T18:23:24.582Z,6.99
2023-02-02T18:25:52.910Z,7.01
2023-02-02T18:28:20.067Z,7.00
2023-02-02T18:30:48.086Z,6.97
2023-02-02T18:33:17.916Z,6.96
2023-02-02T18:35:45.743Z,6.98
2023-02-02T18:38:13.130Z,7.02
2023-02-02T18:40:40.175Z,7.01
2023-02-02T18:43:06.839Z,7.02
2023-02-02T18:45:33.444Z,7.04
2023-02-02T18:47:59.988Z,6.98
2023-02-02T18:50:26.579Z,7.04
2023-02-02T18:52:53.118Z,7.03
2023-02-02T18:55:19.628Z,7.00
2023-02-02T18:57:46.161Z,7.03
2023-02-02T19:00:13.229Z,7.03
2023-02-02T19:02:39.761Z,7.03
2023-02-02T19:05:26.210Z,6.99
2023-02-02T19:07:55.883Z,7.05
2023-02-02T19:10:24.787Z,7.04
2023-02-02T19:12:56.380Z,7.03
2023-02-02T19:15:23.470Z,7.03
2023-02-02T19:17:53.173Z,7.03
2023-02-02T19:20:26.424Z,7.01
2023-02-02T19:23:11.767Z,7.01
2023-02-02T19:25:42.792Z,7.00
2023-02-02T19:28:24.265Z,7.02
2023-02-02T19:30:59.928Z,7.04
2023-02-02T19:33:43.297Z,7.04
2023-02-02T19:36:24.708Z,7.05
2023-02-02T19:39:25.755Z,7.05
2023-02-02T19:41:57.430Z,7.03
2023-02-02T19:44:30.545Z,7.06
2023-02-02T19:46:57.761Z,7.12
2023-02-02T19:49:32.862Z,7.15
2023-02-02T19:52:00.151Z,7.17
2023-02-02T19:54:42.687Z,7.17
2023-02-02T19:57:48.413Z,7.24
2023-02-02T20:00:15.321Z,7.32
2023-02-02T20:03:04.998Z,7.30
2023-02-02T20:05:44.812Z,7.36
2023-02-02T20:08:29.970Z,7.36
2023-02-02T20:11:00.695Z,7.48
2023-02-02T20:13:45.575Z,7.51
2023-02-02T20:16:18.097Z,7.54
2023-02-02T20:18:48.603Z,7.51
2023-02-02T20:21:41.419Z,7.58
2023-02-02T20:24:40.599Z,7.71
2023-02-02T20:27:25.634Z,7.74
2023-02-02T20:29:54.689Z,7.73
2023-02-02T20:32:37.464Z,7.77
2023-02-02T20:35:29.223Z,7.66
2023-02-02T20:37:56.313Z,7.73
2023-02-02T20:40:26.963Z,7.72
2023-02-02T20:42:54.560Z,7.76
2023-02-02T20:45:22.636Z,7.77
2023-02-02T20:47:50.565Z,7.72
2023-02-02T20:50:19.688Z,7.83
2023-02-02T20:52:46.263Z,7.83
2023-02-02T20:55:13.805Z,7.84
2023-02-02T20:57:40.955Z,7.90
2023-02-02T21:00:10.683Z,7.92
2023-02-02T21:02:37.266Z,7.89
2023-02-02T21:05:04.577Z,7.85
2023-02-02T21:07:31.144Z,7.85
2023-02-02T21:09:57.725Z,7.81
2023-02-02T21:12:25.687Z,7.82
2023-02-02T21:14:55.988Z,7.86
2023-02-02T21:17:23.450Z,7.86
2023-02-02T21:19:52.799Z,7.90
2023-02-02T21:22:19.379Z,7.92
2023-02-02T21:24:46.414Z,7.96
2023-02-02T21:27:13.552Z,7.92
2023-02-02T21:29:40.193Z,7.91
2023-02-02T21:32:06.877Z,7.90
2023-02-02T21:34:33.738Z,7.99
2023-02-02T21:37:00.397Z,7.91
2023-02-02T21:39:30.570Z,7.90
2023-02-02T21:42:11.964Z,7.90
2023-02-02T21:44:51.488Z,7.87
2023-02-02T21:47:44.809Z,7.83
2023-02-02T21:50:16.820Z,7.85
2023-02-02T21:52:44.192Z,7.89
2023-02-02T21:55:29.287Z,7.86
2023-02-02T21:57:58.260Z,7.93
2023-02-02T22:00:33.999Z,7.87
2023-02-02T22:03:01.148Z,7.89
2023-02-02T22:05:34.455Z,7.88
2023-02-02T22:08:07.469Z,7.85
2023-02-02T22:10:40.246Z,7.85
2023-02-02T22:13:17.135Z,7.82
2023-02-02T22:15:48.276Z,7.80
2023-02-02T22:18:26.265Z,7.77
2023-02-02T22:20:56.262Z,7.77
2023-02-02T22:23:27.139Z,7.82
2023-02-02T22:25:56.214Z,7.78
2023-02-02T22:28:30.141Z,7.80
2023-02-02T22:30:57.100Z,7.69
2023-02-02T22:33:24.290Z,7.70
2023-02-02T22:35:51.382Z,7.67
2023-02-02T22:38:21.039Z,7.65
2023-02-02T22:40:48.543Z,7.62
2023-02-02T22:43:19.558Z,7.56
2023-02-02T22:45:47.755Z,7.54
2023-02-02T22:48:16.087Z,7.54
2023-02-02T22:50:42.991Z,7.67
2023-02-02T22:53:09.665Z,7.69
2023-02-02T22:55:36.887Z,7.62
2023-02-02T22:58:03.956Z,7.62
2023-02-02T23:00:33.048Z,7.55
2023-02-02T23:02:59.939Z,7.45
2023-02-02T23:05:27.772Z,7.48
2023-02-02T23:07:54.796Z,7.48
2023-02-02T23:10:25.455Z,7.46
2023-02-02T23:12:54.887Z,7.45
2023-02-02T23:15:22.599Z,7.45
2023-02-02T23:17:49.851Z,7.48
2023-02-02T23:20:17.592Z,7.53
2023-02-02T23:22:44.699Z,7.58
2023-02-02T23:25:12.984Z,7.60
2023-02-02T23:27:39.739Z,7.61
2023-02-02T23:30:10.595Z,7.64
2023-02-02T23:32:37.691Z,7.71
2023-02-02T23:35:05.900Z,7.76
2023-02-02T23:37:32.733Z,7.76
2023-02-02T23:39:59.391Z,7.82
2023-02-02T23:42:25.953Z,7.78
2023-02-02T23:44:53.339Z,7.78
2023-02-02T23:47:20.503Z,7.67
2023-02-02T23:49:47.233Z,7.68
2023-02-02T23:52:14.824Z,7.59
2023-02-02T23:54:42.144Z,7.64
2023-02-02T23:57:09.069Z,7.64
2023-02-02T23:59:35.879Z,7.68
